Time;durP1;ratioP1;P1;durP2;ratioP2;P2;SDS_P1;SDS_P2;PMS_P1;PMS_P2;Temp;Humidity;BMP_temperature;BMP_pressure;BME280_temperature;BME280_humidity;BME280_pressure;Samples;Min_cycle;Max_cycle;Signal;HPM_P1;HPM_P2
2022/09/04 00:02:16;;;;;;;4.22;3.70;;;;;17.80;100863.00;;;;13061578;22;20163;-74
2022/09/04 00:07:44;;;;;;;4.85;4.35;;;;;17.80;100876.00;;;;13063243;22;20179;-74
2022/09/04 00:12:55;;;;;;;4.18;3.78;;;;;17.70;100882.00;;;;13057431;22;20205;-74
2022/09/04 00:18:07;;;;;;;5.90;4.57;;;;;17.70;100876.00;;;;13085441;22;20426;-74
2022/09/04 00:23:17;;;;;;;5.88;4.40;;;;;17.70;100878.00;;;;13059421;22;20208;-74
2022/09/04 00:28:44;;;;;;;5.47;4.22;;;;;17.60;100873.00;;;;13113154;22;20184;-74
2022/09/04 00:34:09;;;;;;;5.35;4.25;;;;;17.60;100888.00;;;;13037821;22;20287;-74
2022/09/04 00:39:15;;;;;;;4.75;3.90;;;;;17.50;100890.00;;;;13057839;22;20171;-74
2022/09/04 00:44:35;;;;;;;7.00;4.40;;;;;17.50;100889.00;;;;13037989;22;20178;-74
2022/09/04 00:49:58;;;;;;;5.80;4.28;;;;;17.50;100900.00;;;;13058891;22;20159;-74
2022/09/04 00:55:43;;;;;;;5.90;4.07;;;;;17.40;100897.00;;;;13036741;22;20199;-74
2022/09/04 01:00:46;;;;;;;5.90;4.40;;;;;17.40;100910.00;;;;13036809;22;20227;-74
2022/09/04 01:06:28;;;;;;;7.32;4.70;;;;;17.30;100917.00;;;;13037845;22;20503;-74
2022/09/04 01:12:06;;;;;;;5.38;4.65;;;;;17.30;100912.00;;;;13035610;22;20201;-74
2022/09/04 01:17:26;;;;;;;6.90;4.70;;;;;17.30;100916.00;;;;13027063;22;20262;-74
2022/09/04 01:22:44;;;;;;;7.57;4.53;;;;;17.20;100930.00;;;;13038408;22;20178;-74
2022/09/04 01:28:03;;;;;;;4.97;4.47;;;;;17.20;100921.00;;;;13012156;22;20206;-74
2022/09/04 01:33:14;;;;;;;6.10;4.15;;;;;17.20;100931.00;;;;13084830;22;20270;-74
2022/09/04 01:38:44;;;;;;;7.10;4.80;;;;;17.20;100935.00;;;;13038005;22;20171;-74
2022/09/04 01:43:45;;;;;;;4.47;4.00;;;;;17.10;100945.00;;;;13083902;22;20168;-74
2022/09/04 01:48:55;;;;;;;5.90;4.70;;;;;17.10;100947.00;;;;13085165;22;20163;-74
2022/09/04 01:54:27;;;;;;;8.80;4.73;;;;;17.20;100949.00;;;;13063295;22;20222;-74
2022/09/04 01:59:44;;;;;;;5.33;4.33;;;;;17.20;100940.00;;;;13062480;22;20163;-74
2022/09/04 02:04:51;;;;;;;5.10;4.40;;;;;17.20;100953.00;;;;13038009;22;20836;-74
2022/09/04 02:10:16;;;;;;;4.30;3.88;;;;;17.20;100956.00;;;;13110847;22;20163;-74
2022/09/04 02:15:29;;;;;;;4.75;3.80;;;;;17.20;100959.00;;;;13036027;22;20700;-74
2022/09/04 02:20:30;;;;;;;5.78;4.05;;;;;17.10;100963.00;;;;13063412;22;20164;-74
2022/09/04 02:25:51;;;;;;;4.77;4.17;;;;;17.10;100961.00;;;;13112016;22;20270;-74
2022/09/04 02:31:13;;;;;;;7.50;4.10;;;;;17.10;100968.00;;;;13038043;22;20179;-74
2022/09/04 02:36:32;;;;;;;5.70;4.07;;;;;17.20;100967.00;;;;13066656;22;20576;-74
2022/09/04 02:41:46;;;;;;;5.97;4.18;;;;;17.20;100969.00;;;;13111798;22;20608;-74
2022/09/04 02:47:13;;;;;;;4.88;4.35;;;;;17.10;100972.00;;;;13038038;22;20201;-74
2022/09/04 02:52:53;;;;;;;4.88;4.22;;;;;17.10;100986.00;;;;13062528;22;20187;-74
2022/09/04 02:58:30;;;;;;;6.10;4.68;;;;;17.00;100998.00;;;;12972171;22;20213;-74
2022/09/04 03:03:41;;;;;;;8.13;5.13;;;;;16.90;100996.00;;;;13010366;22;20175;-74
2022/09/04 03:08:46;;;;;;;8.63;4.60;;;;;16.90;101000.00;;;;13057556;22;20164;-74
2022/09/04 03:14:16;;;;;;;7.28;5.22;;;;;16.90;101000.00;;;;13084113;22;20197;-74
2022/09/04 03:19:34;;;;;;;9.00;5.23;;;;;16.90;101004.00;;;;13112418;22;20182;-74
2022/09/04 03:25:05;;;;;;;7.33;5.83;;;;;16.90;101009.00;;;;13061660;22;20224;-74
2022/09/04 03:30:09;;;;;;;9.18;6.60;;;;;16.80;101016.00;;;;13036764;22;20869;-74
2022/09/04 03:35:25;;;;;;;8.27;6.27;;;;;16.80;101020.00;;;;13061537;22;20891;-74
2022/09/04 03:40:44;;;;;;;7.37;5.73;;;;;16.80;101022.00;;;;13110210;22;20636;-74
2022/09/04 03:46:36;;;;;;;7.20;5.53;;;;;16.80;101022.00;;;;13109534;22;20250;-74
2022/09/04 03:51:57;;;;;;;8.47;6.17;;;;;16.80;101016.00;;;;13029898;22;20179;-74
2022/09/04 03:57:09;;;;;;;7.20;5.93;;;;;16.80;101023.00;;;;13110583;22;20192;-74
2022/09/04 04:02:35;;;;;;;6.70;5.97;;;;;16.70;101032.00;;;;13110138;22;20168;-74
2022/09/04 04:07:51;;;;;;;8.20;6.60;;;;;16.70;101022.00;;;;13059835;22;20270;-74
2022/09/04 04:13:03;;;;;;;7.97;6.63;;;;;16.60;101028.00;;;;13081281;22;20784;-74
2022/09/04 04:18:30;;;;;;;9.83;6.80;;;;;16.60;101030.00;;;;13034948;22;20507;-74
2022/09/04 04:23:56;;;;;;;9.80;7.87;;;;;16.60;101034.00;;;;13059424;22;20174;-74
2022/09/04 04:29:24;;;;;;;8.93;7.30;;;;;16.60;101041.00;;;;13107178;22;20184;-74
2022/09/04 04:34:39;;;;;;;7.87;6.93;;;;;16.70;101035.00;;;;13082876;22;20214;-74
2022/09/04 04:39:51;;;;;;;8.37;6.83;;;;;16.70;101046.00;;;;13107964;22;20244;-74
2022/09/04 04:50:49;;;;;;;8.17;5.93;;;;;16.80;101055.00;;;;13035987;22;20443;-74
2022/09/04 04:56:13;;;;;;;7.37;6.10;;;;;16.90;101052.00;;;;13037282;22;20195;-74
2022/09/04 05:01:26;;;;;;;7.53;5.60;;;;;16.80;101059.00;;;;13063111;22;20195;-74
2022/09/04 05:06:42;;;;;;;8.03;5.33;;;;;16.80;101063.00;;;;13086220;22;20179;-74
2022/09/04 05:12:01;;;;;;;6.83;5.07;;;;;16.70;101072.00;;;;13037348;22;20189;-74
2022/09/04 05:17:02;;;;;;;10.53;4.57;;;;;16.70;101080.00;;;;13110205;22;20163;-74
2022/09/04 05:22:23;;;;;;;5.40;4.37;;;;;16.70;101086.00;;;;13062763;22;20179;-74
2022/09/04 05:27:31;;;;;;;4.90;4.50;;;;;16.80;101090.00;;;;13062017;22;20213;-74
2022/09/04 05:32:39;;;;;;;5.67;5.03;;;;;16.90;101096.00;;;;13060506;22;20188;-74
2022/09/04 05:37:55;;;;;;;5.47;4.30;;;;;17.10;101104.00;;;;13036167;22;20561;-74
2022/09/04 05:43:15;;;;;;;6.07;4.78;;;;;17.30;101107.00;;;;13084678;22;20167;-74
2022/09/04 05:48:33;;;;;;;6.27;4.87;;;;;17.50;101104.00;;;;13111237;22;20178;-74
2022/09/04 05:54:02;;;;;;;7.90;4.50;;;;;17.50;101117.00;;;;12989449;22;20195;-74
2022/09/04 05:59:34;;;;;;;7.65;4.68;;;;;17.60;101119.00;;;;13034113;22;20171;-74
2022/09/04 06:04:50;;;;;;;7.55;5.07;;;;;17.50;101118.00;;;;13083915;22;20184;-74
2022/09/04 06:10:14;;;;;;;7.10;5.60;;;;;18.10;101127.00;;;;13061827;22;20181;-74
2022/09/04 06:15:34;;;;;;;8.30;5.80;;;;;18.50;101121.00;;;;13037246;22;20582;-74
2022/09/04 06:20:57;;;;;;;6.20;5.60;;;;;18.90;101118.00;;;;13035191;22;20175;-75
2022/09/04 06:26:01;;;;;;;6.95;5.80;;;;;19.50;101113.00;;;;13109685;22;20229;-75
2022/09/04 06:31:15;;;;;;;6.45;5.72;;;;;20.00;101125.00;;;;13059457;22;20250;-75
2022/09/04 06:36:22;;;;;;;7.22;6.38;;;;;20.40;101126.00;;;;13033274;22;20195;-75
2022/09/04 06:41:41;;;;;;;8.10;7.03;;;;;20.80;101125.00;;;;13061792;22;20171;-75
2022/09/04 06:47:10;;;;;;;7.80;6.60;;;;;21.10;101134.00;;;;13108638;22;20174;-75
2022/09/04 06:52:30;;;;;;;7.43;5.70;;;;;21.50;101140.00;;;;13081542;22;20199;-75
2022/09/04 06:57:57;;;;;;;7.45;6.03;;;;;21.90;101142.00;;;;13107446;22;20159;-75
2022/09/04 07:03:19;;;;;;;6.95;6.13;;;;;22.10;101147.00;;;;13109634;22;20164;-75
2022/09/04 07:08:30;;;;;;;6.10;5.43;;;;;22.30;101150.00;;;;13033167;22;20178;-75
2022/09/04 07:14:03;;;;;;;7.93;6.00;;;;;22.70;101154.00;;;;13033515;22;20195;-74
2022/09/04 07:19:22;;;;;;;7.25;6.13;;;;;23.20;101160.00;;;;13061573;22;20167;-74
2022/09/04 07:24:29;;;;;;;6.78;5.63;;;;;23.70;101158.00;;;;13035346;22;20650;-74
2022/09/04 07:29:38;;;;;;;6.85;5.22;;;;;23.90;101163.00;;;;13032645;22;20171;-75
2022/09/04 07:35:06;;;;;;;7.35;5.07;;;;;24.20;101161.00;;;;13105162;22;20222;-75
2022/09/04 07:40:14;;;;;;;5.88;5.35;;;;;24.30;101163.00;;;;13061160;22;20167;-75
2022/09/04 07:45:36;;;;;;;4.78;4.35;;;;;24.50;101163.00;;;;13013516;22;20198;-75
2022/09/04 07:51:09;;;;;;;6.65;3.85;;;;;24.70;101167.00;;;;12984165;22;20182;-75
2022/09/04 07:56:34;;;;;;;5.18;4.30;;;;;25.00;101176.00;;;;13062385;22;20586;-75
2022/09/04 08:01:46;;;;;;;4.13;3.70;;;;;25.20;101172.00;;;;13108402;22;20168;-75
2022/09/04 08:07:00;;;;;;;6.80;3.20;;;;;25.50;101176.00;;;;13107960;22;20159;-75
2022/09/04 08:12:48;;;;;;;3.33;2.88;;;;;25.70;101176.00;;;;13080314;22;20191;-75
2022/09/04 08:18:16;;;;;;;3.38;2.17;;;;;26.00;101189.00;;;;13058555;22;20838;-75
2022/09/04 08:23:41;;;;;;;3.75;2.78;;;;;26.40;101179.00;;;;13111175;22;20167;-75
2022/09/04 08:28:55;;;;;;;5.38;2.80;;;;;27.10;101180.00;;;;13084594;22;20183;-75
2022/09/04 08:34:33;;;;;;;2.30;2.10;;;;;27.90;101184.00;;;;13064395;22;20833;-75
2022/09/04 08:39:37;;;;;;;3.15;2.15;;;;;28.40;101182.00;;;;13111626;22;20622;-76
2022/09/04 08:45:14;;;;;;;3.17;1.95;;;;;28.80;101185.00;;;;13038721;22;20593;-75
2022/09/04 08:50:28;;;;;;;3.58;1.98;;;;;29.30;101191.00;;;;13061538;22;20180;-76
2022/09/04 08:55:54;;;;;;;3.17;2.00;;;;;29.40;101195.00;;;;13038749;22;20199;-75
2022/09/04 09:00:56;;;;;;;2.08;1.90;;;;;29.80;101198.00;;;;13110110;22;20217;-75
2022/09/04 09:06:30;;;;;;;4.20;2.22;;;;;30.20;101195.00;;;;13111105;22;20163;-75
2022/09/04 09:11:53;;;;;;;2.28;1.80;;;;;30.60;101209.00;;;;13064858;22;20175;-75
2022/09/04 09:17:12;;;;;;;3.65;2.20;;;;;30.80;101200.00;;;;13096022;22;20606;-75
2022/09/04 09:22:16;;;;;;;2.25;1.98;;;;;31.20;101201.00;;;;13056376;22;20710;-75
2022/09/04 09:27:45;;;;;;;2.03;1.52;;;;;31.50;101212.00;;;;13057907;22;20202;-75
2022/09/04 09:33:01;;;;;;;2.20;1.95;;;;;31.80;101211.00;;;;13054456;22;20596;-75
2022/09/04 09:38:24;;;;;;;3.47;1.60;;;;;32.00;101202.00;;;;13112327;22;20186;-75
2022/09/04 09:43:50;;;;;;;4.95;1.88;;;;;31.90;101212.00;;;;13069662;22;20227;-75
2022/09/04 09:49:12;;;;;;;3.70;1.88;;;;;31.90;101218.00;;;;13074896;22;20575;-75
2022/09/04 09:54:47;;;;;;;3.25;1.40;;;;;31.90;101215.00;;;;13101502;22;20198;-75
2022/09/04 10:00:05;;;;;;;2.38;1.75;;;;;31.80;101218.00;;;;13083129;22;20175;-75
2022/09/04 10:05:28;;;;;;;4.97;2.08;;;;;31.90;101216.00;;;;13063523;22;20175;-75
2022/09/04 10:10:44;;;;;;;3.13;1.83;;;;;31.40;101214.00;;;;13111557;22;20960;-76
2022/09/04 10:15:58;;;;;;;3.28;1.65;;;;;31.20;101214.00;;;;13084396;22;20193;-76
2022/09/04 10:21:19;;;;;;;1.95;1.20;;;;;31.80;101203.00;;;;13083973;22;20592;-76
2022/09/04 10:26:40;;;;;;;4.30;1.58;;;;;32.20;101212.00;;;;13083161;22;20539;-76
2022/09/04 10:32:00;;;;;;;1.98;1.50;;;;;32.30;101210.00;;;;13110886;22;20216;-75
2022/09/04 10:37:19;;;;;;;5.95;1.58;;;;;32.70;101212.00;;;;13109912;22;20163;-75
2022/09/04 10:42:49;;;;;;;4.53;1.67;;;;;33.50;101208.00;;;;13109318;22;20186;-75
2022/09/04 10:48:12;;;;;;;2.55;1.40;;;;;34.10;101209.00;;;;13060651;22;20210;-75
2022/09/04 10:53:50;;;;;;;3.20;1.50;;;;;34.10;101210.00;;;;13107014;22;20218;-76
2022/09/04 10:59:30;;;;;;;2.63;1.08;;;;;33.90;101193.00;;;;13110267;22;20633;-76
2022/09/04 11:05:14;;;;;;;2.88;1.08;;;;;34.00;101195.00;;;;13079902;22;20160;-76
2022/09/04 11:10:29;;;;;;;1.48;1.15;;;;;33.90;101202.00;;;;13111507;22;20171;-76
2022/09/04 11:15:51;;;;;;;2.70;1.30;;;;;34.00;101196.00;;;;13062051;22;20281;-76
2022/09/04 11:21:29;;;;;;;3.58;1.15;;;;;34.10;101192.00;;;;13112085;22;20534;-76
2022/09/04 11:26:53;;;;;;;3.88;1.00;;;;;34.20;101193.00;;;;13062939;22;20187;-76
2022/09/04 11:31:58;;;;;;;1.10;0.98;;;;;34.20;101195.00;;;;13036199;22;20179;-75
2022/09/04 11:37:16;;;;;;;2.45;1.35;;;;;34.30;101187.00;;;;13110270;22;21028;-76
2022/09/04 11:42:46;;;;;;;2.28;1.58;;;;;34.70;101194.00;;;;13112072;22;20167;-76
2022/09/04 11:48:36;;;;;;;2.50;1.30;;;;;34.90;101193.00;;;;13054895;22;20167;-75
2022/09/04 11:53:52;;;;;;;5.53;1.23;;;;;35.00;101200.00;;;;13107602;22;20183;-75
2022/09/04 11:59:23;;;;;;;3.90;1.10;;;;;34.80;101197.00;;;;13082877;22;20162;-75
2022/09/04 12:04:54;;;;;;;5.15;1.23;;;;;34.50;101189.00;;;;13052152;22;20198;-76
2022/09/04 12:10:18;;;;;;;2.88;1.23;;;;;33.80;101199.00;;;;12939720;22;20186;-76
2022/09/04 12:15:26;;;;;;;2.95;1.48;;;;;34.10;101206.00;;;;13083552;22;20252;-76
2022/09/04 12:21:13;;;;;;;2.67;1.10;;;;;34.10;101201.00;;;;13052101;22;20593;-76
2022/09/04 12:27:00;;;;;;;2.85;1.10;;;;;34.30;101205.00;;;;13112060;22;20661;-76
2022/09/04 12:32:13;;;;;;;1.63;1.20;;;;;34.10;101203.00;;;;13111940;22;20864;-76
2022/09/04 12:37:21;;;;;;;3.40;1.30;;;;;33.90;101212.00;;;;13063000;22;20202;-76
2022/09/04 12:42:22;;;;;;;3.55;1.30;;;;;33.90;101205.00;;;;13051749;22;20208;-76
2022/09/04 12:47:57;;;;;;;3.60;1.40;;;;;34.50;101203.00;;;;13047158;22;20196;-75
2022/09/04 12:53:43;;;;;;;4.28;1.30;;;;;34.40;101201.00;;;;13105837;22;20236;-76
2022/09/04 12:59:11;;;;;;;2.22;1.27;;;;;34.50;101199.00;;;;13061502;22;20216;-75
2022/09/04 13:04:19;;;;;;;4.07;1.27;;;;;34.00;101214.00;;;;13037698;22;20182;-76
2022/09/04 13:09:33;;;;;;;4.05;1.33;;;;;34.30;101208.00;;;;13061806;22;20244;-76
2022/09/04 13:14:51;;;;;;;5.40;1.33;;;;;34.60;101220.00;;;;13037449;22;20191;-76
2022/09/04 13:20:12;;;;;;;1.88;1.15;;;;;34.40;101234.00;;;;13084234;22;20610;-76
2022/09/04 13:25:31;;;;;;;2.10;1.10;;;;;34.70;101219.00;;;;13085859;22;20175;-76
2022/09/04 13:30:39;;;;;;;3.60;1.30;;;;;35.40;101216.00;;;;13082918;22;20599;-75
2022/09/04 13:35:50;;;;;;;3.15;1.13;;;;;35.10;101219.00;;;;13082718;22;20198;-76
2022/09/04 13:41:17;;;;;;;2.08;1.30;;;;;35.40;101220.00;;;;13084378;22;20164;-76
2022/09/04 13:46:32;;;;;;;2.83;1.27;;;;;35.90;101222.00;;;;13110631;22;20167;-76
2022/09/04 13:51:38;;;;;;;1.58;1.45;;;;;36.90;101201.00;;;;13109137;22;20610;-76
2022/09/04 13:57:12;;;;;;;3.17;1.30;;;;;36.90;101203.00;;;;13111831;22;20183;-76
2022/09/04 14:02:15;;;;;;;1.60;1.30;;;;;38.60;101206.00;;;;13082373;22;20170;-76
2022/09/04 14:07:25;;;;;;;1.90;1.02;;;;;39.70;101205.00;;;;13048857;22;20677;-75
2022/09/04 14:12:28;;;;;;;3.17;1.17;;;;;40.40;101198.00;;;;13112097;22;20253;-76
2022/09/04 14:17:39;;;;;;;4.47;1.50;;;;;40.40;101189.00;;;;13042805;22;20214;-76
2022/09/04 14:23:01;;;;;;;2.92;1.30;;;;;38.70;101202.00;;;;13083519;22;20629;-76
2022/09/04 14:28:33;;;;;;;4.78;1.33;;;;;35.10;101192.00;;;;13062233;22;20602;-76
2022/09/04 14:33:46;;;;;;;3.45;1.30;;;;;33.60;101204.00;;;;13060531;22;20226;-76
2022/09/04 14:39:16;;;;;;;1.80;1.10;;;;;33.70;101190.00;;;;13072045;22;20230;-76
2022/09/04 14:44:45;;;;;;;2.30;1.10;;;;;33.90;101203.00;;;;13057345;22;20159;-76
2022/09/04 14:49:50;;;;;;;2.28;1.30;;;;;32.50;101195.00;;;;13023532;22;20556;-76
2022/09/04 14:54:54;;;;;;;1.27;0.90;;;;;31.90;101189.00;;;;13035315;22;20285;-75
2022/09/04 15:00:10;;;;;;;1.15;1.10;;;;;31.70;101192.00;;;;13108037;22;20159;-75
2022/09/04 15:05:19;;;;;;;5.20;1.20;;;;;30.60;101192.00;;;;13030785;22;20178;-76
2022/09/04 15:10:34;;;;;;;1.33;1.23;;;;;29.90;101192.00;;;;13108078;22;20203;-75
2022/09/04 15:15:39;;;;;;;2.50;1.70;;;;;30.00;101177.00;;;;13108282;22;20183;-75
2022/09/04 15:20:56;;;;;;;2.05;1.40;;;;;30.10;101175.00;;;;13047750;22;20203;-75
2022/09/04 15:26:09;;;;;;;3.72;1.33;;;;;30.10;101174.00;;;;13105197;22;20218;-75
2022/09/04 15:31:28;;;;;;;1.88;1.58;;;;;29.80;101171.00;;;;13081782;22;20243;-75
2022/09/04 15:36:30;;;;;;;2.65;1.13;;;;;29.50;101171.00;;;;13054571;22;20183;-75
2022/09/04 15:41:32;;;;;;;2.08;1.30;;;;;29.20;101168.00;;;;13059383;22;20167;-75
2022/09/04 15:46:39;;;;;;;1.60;1.15;;;;;28.90;101166.00;;;;13063775;22;20679;-75
2022/09/04 15:51:54;;;;;;;3.58;1.23;;;;;28.80;101172.00;;;;13113060;22;20174;-75
2022/09/04 15:57:00;;;;;;;4.80;1.20;;;;;28.50;101168.00;;;;13106808;22;20314;-75
2022/09/04 16:02:11;;;;;;;2.55;0.90;;;;;28.50;101164.00;;;;13109276;22;20164;-75
2022/09/04 16:07:19;;;;;;;1.33;1.20;;;;;28.30;101167.00;;;;13033703;22;20505;-75
2022/09/04 16:12:39;;;;;;;1.92;1.20;;;;;28.20;101169.00;;;;13078151;22;20187;-75
2022/09/04 16:17:46;;;;;;;1.88;1.20;;;;;28.10;101162.00;;;;13059488;22;20177;-76
2022/09/04 16:22:57;;;;;;;2.97;1.02;;;;;28.10;101161.00;;;;13084078;22;20174;-76
2022/09/04 16:28:07;;;;;;;1.15;1.05;;;;;28.00;101158.00;;;;13082459;22;20578;-75
2022/09/04 16:33:19;;;;;;;2.35;1.10;;;;;27.80;101164.00;;;;13082530;22;20425;-75
2022/09/04 16:38:46;;;;;;;2.20;0.95;;;;;27.70;101164.00;;;;13034882;22;20543;-76
2022/09/04 16:44:09;;;;;;;5.07;1.50;;;;;27.60;101161.00;;;;13111036;22;20219;-76
2022/09/04 16:49:24;;;;;;;1.95;1.10;;;;;27.60;101154.00;;;;13082049;22;20171;-76
2022/09/04 16:54:36;;;;;;;1.75;0.90;;;;;27.70;101155.00;;;;13083043;22;20188;-75
2022/09/04 16:59:43;;;;;;;1.35;1.15;;;;;27.70;101164.00;;;;13109309;22;20641;-76
2022/09/04 17:04:52;;;;;;;2.55;1.20;;;;;27.60;101153.00;;;;13037890;22;20662;-75
2022/09/04 17:10:06;;;;;;;3.50;1.42;;;;;27.20;101155.00;;;;13113107;22;20817;-76
2022/09/04 17:15:26;;;;;;;2.58;1.10;;;;;27.00;101157.00;;;;13034068;22;20811;-76
2022/09/04 17:20:45;;;;;;;1.33;1.00;;;;;26.70;101165.00;;;;13084875;22;20163;-75
2022/09/04 17:26:13;;;;;;;1.08;0.98;;;;;26.40;101169.00;;;;13062991;22;20686;-75
2022/09/04 17:31:52;;;;;;;1.50;1.30;;;;;26.20;101170.00;;;;13037540;22;20190;-75
2022/09/04 17:37:04;;;;;;;2.97;1.20;;;;;26.00;101166.00;;;;13085414;22;20275;-75
2022/09/04 17:42:33;;;;;;;2.08;1.30;;;;;25.80;101172.00;;;;13058862;22;20170;-75
2022/09/04 17:47:42;;;;;;;5.78;1.70;;;;;25.60;101170.00;;;;13035916;22;20176;-75
2022/09/04 17:52:52;;;;;;;6.65;2.15;;;;;25.30;101175.00;;;;13111665;22;20261;-75
2022/09/04 17:58:08;;;;;;;4.35;2.00;;;;;25.10;101177.00;;;;13062751;22;20174;-75
2022/09/04 18:03:28;;;;;;;3.28;2.50;;;;;24.80;101184.00;;;;13083721;22;20167;-74
2022/09/04 18:08:52;;;;;;;2.92;2.03;;;;;24.60;101186.00;;;;13078547;22;20159;-75
2022/09/04 18:14:10;;;;;;;3.90;2.10;;;;;24.40;101188.00;;;;13061238;22;20237;-74
2022/09/04 18:19:43;;;;;;;2.08;1.30;;;;;24.10;101189.00;;;;13035804;22;20614;-74
2022/09/04 18:24:54;;;;;;;3.55;1.58;;;;;23.90;101196.00;;;;13055643;22;20168;-74
2022/09/04 18:30:01;;;;;;;2.05;1.58;;;;;23.70;101200.00;;;;13036833;22;20175;-74
2022/09/04 18:36:10;;;;;;;2.22;1.55;;;;;23.60;101208.00;;;;13056643;22;20190;-73
2022/09/04 18:41:51;;;;;;;3.70;1.35;;;;;23.40;101208.00;;;;13109036;22;20167;-73
2022/09/04 18:47:20;;;;;;;2.38;1.33;;;;;23.20;101215.00;;;;13060366;22;20524;-73
2022/09/04 18:52:41;;;;;;;4.20;1.42;;;;;22.80;101217.00;;;;13055154;22;20283;-73
2022/09/04 18:57:54;;;;;;;4.22;1.60;;;;;22.50;101219.00;;;;13081858;22;20163;-73
2022/09/04 19:03:25;;;;;;;3.92;1.48;;;;;22.20;101223.00;;;;13059372;22;20171;-73
2022/09/04 19:08:33;;;;;;;2.85;1.88;;;;;22.10;101229.00;;;;13054334;22;20238;-73
2022/09/04 19:13:46;;;;;;;4.93;1.92;;;;;21.90;101229.00;;;;13108857;22;20292;-73
2022/09/04 19:19:01;;;;;;;2.00;1.75;;;;;21.60;101229.00;;;;13058492;22;20941;-74
2022/09/04 19:24:28;;;;;;;3.88;1.65;;;;;21.40;101226.00;;;;13108323;22;20174;-74
2022/09/04 19:30:13;;;;;;;4.45;2.00;;;;;21.10;101232.00;;;;13081404;22;20167;-73
2022/09/04 19:35:37;;;;;;;3.63;1.83;;;;;20.90;101235.00;;;;12996555;22;20191;-73
2022/09/04 19:40:44;;;;;;;1.77;1.60;;;;;20.70;101237.00;;;;13060552;22;20159;-73
2022/09/04 19:46:43;;;;;;;2.05;1.70;;;;;20.50;101237.00;;;;13034345;22;20312;-73
2022/09/04 19:52:05;;;;;;;3.47;1.70;;;;;20.30;101240.00;;;;13010390;22;20175;-73
2022/09/04 19:58:07;;;;;;;4.25;1.60;;;;;20.10;101234.00;;;;13051403;22;20167;-73
2022/09/04 20:03:29;;;;;;;3.58;1.77;;;;;20.00;101246.00;;;;13058239;22;20626;-73
2022/09/04 20:08:39;;;;;;;3.45;1.40;;;;;19.90;101242.00;;;;13108295;22;20167;-74
2022/09/04 20:13:51;;;;;;;7.25;2.10;;;;;19.70;101241.00;;;;13054462;22;20187;-74
2022/09/04 20:19:07;;;;;;;2.22;1.38;;;;;19.60;101241.00;;;;13109515;22;20202;-74
2022/09/04 20:24:41;;;;;;;2.28;1.60;;;;;19.50;101240.00;;;;13059451;22;20550;-74
2022/09/04 20:30:21;;;;;;;2.40;1.70;;;;;19.30;101247.00;;;;13060533;22;20210;-74
2022/09/04 20:35:39;;;;;;;6.05;2.00;;;;;19.10;101243.00;;;;13036689;22;20653;-74
2022/09/04 20:40:42;;;;;;;4.97;2.00;;;;;19.00;101255.00;;;;13111326;22;20163;-72
2022/09/04 20:45:59;;;;;;;6.60;2.03;;;;;18.90;101252.00;;;;13010666;22;20180;-74
2022/09/04 20:51:29;;;;;;;3.42;1.63;;;;;18.80;101264.00;;;;13082447;22;20163;-74
2022/09/04 20:57:17;;;;;;;5.55;3.85;;;;;18.90;101260.00;;;;13108744;22;20186;-74
2022/09/04 21:02:50;;;;;;;5.13;1.80;;;;;18.90;101261.00;;;;13059992;22;20179;-74
2022/09/04 21:08:33;;;;;;;3.72;1.70;;;;;18.80;101262.00;;;;13083249;22;20410;-74
2022/09/04 21:13:52;;;;;;;3.45;1.77;;;;;18.70;101259.00;;;;13107411;22;20252;-74
2022/09/04 21:19:20;;;;;;;3.47;2.00;;;;;18.60;101268.00;;;;13108792;22;20266;-74
2022/09/04 21:25:01;;;;;;;2.03;1.45;;;;;18.40;101275.00;;;;13034031;22;20299;-74
2022/09/04 21:30:47;;;;;;;1.73;1.63;;;;;18.20;101267.00;;;;13040463;22;20179;-74
2022/09/04 21:35:59;;;;;;;3.13;1.70;;;;;18.10;101269.00;;;;13037646;22;20510;-74
2022/09/04 21:41:47;;;;;;;4.05;1.50;;;;;18.00;101264.00;;;;13037608;22;20171;-74
2022/09/04 21:47:00;;;;;;;6.47;2.05;;;;;17.90;101268.00;;;;13084936;22;20174;-74
2022/09/04 21:52:25;;;;;;;4.80;1.98;;;;;17.90;101268.00;;;;13011527;22;21052;-74
2022/09/04 21:57:26;;;;;;;4.32;2.28;;;;;17.80;101271.00;;;;13011049;22;20175;-74
2022/09/04 22:03:29;;;;;;;3.60;2.00;;;;;17.80;101277.00;;;;13057640;22;20189;-74
2022/09/04 22:08:51;;;;;;;4.90;2.17;;;;;17.70;101278.00;;;;13045390;22;20254;-74
2022/09/04 22:14:17;;;;;;;3.53;2.28;;;;;17.60;101290.00;;;;13009919;22;20553;-74
2022/09/04 22:19:35;;;;;;;5.27;2.00;;;;;17.50;101297.00;;;;13088000;22;20175;-74
2022/09/04 22:25:05;;;;;;;6.13;2.13;;;;;17.30;101299.00;;;;13109634;22;20489;-74
2022/09/04 22:30:06;;;;;;;3.83;2.30;;;;;17.20;101295.00;;;;13061605;22;20168;-74
2022/09/04 22:35:27;;;;;;;6.77;2.37;;;;;17.10;101296.00;;;;13083435;22;20287;-74
2022/09/04 22:40:56;;;;;;;4.03;2.00;;;;;17.00;101286.00;;;;13111086;22;20686;-74
2022/09/04 22:46:30;;;;;;;4.13;2.17;;;;;16.90;101298.00;;;;13083530;22;20163;-74
2022/09/04 22:52:04;;;;;;;4.37;1.97;;;;;16.90;101303.00;;;;13083946;22;20603;-74
2022/09/04 22:57:20;;;;;;;3.70;2.33;;;;;16.80;101293.00;;;;13062432;22;20698;-73
2022/09/04 23:02:45;;;;;;;4.80;1.83;;;;;16.80;101298.00;;;;13055523;22;20250;-74
2022/09/04 23:08:35;;;;;;;4.47;1.90;;;;;16.80;101303.00;;;;13037181;22;20606;-74
2022/09/04 23:14:13;;;;;;;3.20;2.00;;;;;16.80;101299.00;;;;13109803;22;20187;-74
2022/09/04 23:19:49;;;;;;;4.40;2.00;;;;;16.80;101300.00;;;;13084200;22;20163;-74
2022/09/04 23:25:13;;;;;;;2.40;1.60;;;;;16.70;101302.00;;;;13057617;22;20341;-74
2022/09/04 23:30:55;;;;;;;4.13;1.93;;;;;16.60;101301.00;;;;13063560;22;20292;-74
2022/09/04 23:36:16;;;;;;;3.07;1.90;;;;;16.50;101293.00;;;;13083524;22;20183;-74
2022/09/04 23:41:37;;;;;;;2.43;1.87;;;;;16.40;101286.00;;;;13110695;22;20155;-74
2022/09/04 23:47:16;;;;;;;3.80;2.20;;;;;16.40;101275.00;;;;13037035;22;20252;-74
2022/09/04 23:52:46;;;;;;;3.40;1.83;;;;;16.30;101282.00;;;;13110835;22;20604;-74
